createdAt,value
2019-06-07T00:00:51.024Z,18.33
2019-06-07T00:01:50.948Z,18.31
2019-06-07T00:02:50.873Z,18.34
2019-06-07T00:03:50.796Z,18.34
2019-06-07T00:04:50.716Z,18.25
2019-06-07T00:05:50.642Z,18.31
2019-06-07T00:06:50.558Z,18.35
2019-06-07T00:07:50.489Z,18.15
2019-06-07T00:08:50.413Z,18.03
2019-06-07T00:09:50.332Z,18.11
2019-06-07T00:10:50.261Z,18.04
2019-06-07T00:11:50.184Z,18.13
2019-06-07T00:12:50.103Z,18.01
2019-06-07T00:13:50.020Z,18.07
2019-06-07T00:14:49.957Z,17.95
2019-06-07T00:15:49.873Z,18.04
2019-06-07T00:16:49.795Z,18.04
2019-06-07T00:17:49.994Z,18.07
2019-06-07T00:18:49.644Z,18.04
2019-06-07T00:19:49.575Z,18.01
2019-06-07T00:20:49.479Z,17.94
2019-06-07T00:22:49.330Z,18.01
2019-06-07T00:23:49.256Z,17.92
2019-06-07T00:24:49.215Z,17.79
2019-06-07T00:25:49.095Z,17.79
2019-06-07T00:26:58.329Z,17.76
2019-06-07T00:27:48.949Z,17.74
2019-06-07T00:28:48.872Z,17.76
2019-06-07T00:29:48.852Z,17.74
2019-06-07T00:30:52.219Z,17.76
2019-06-07T00:31:48.635Z,17.71
2019-06-07T00:32:48.555Z,17.57
2019-06-07T00:33:48.480Z,17.67
2019-06-07T00:34:48.401Z,17.64
2019-06-07T00:35:48.324Z,17.60
2019-06-07T00:36:48.403Z,17.54
2019-06-07T00:37:48.170Z,17.64
2019-06-07T00:38:48.089Z,17.56
2019-06-07T00:40:12.694Z,17.54
2019-06-07T00:40:47.933Z,17.64
2019-06-07T00:41:47.865Z,17.68
2019-06-07T00:42:47.778Z,17.52
2019-06-07T00:43:47.706Z,17.65
2019-06-07T00:44:47.627Z,17.68
2019-06-07T00:45:47.549Z,17.64
2019-06-07T00:46:47.466Z,17.64
2019-06-07T00:47:47.396Z,17.39
2019-06-07T00:48:47.315Z,17.33
2019-06-07T00:49:47.237Z,17.27
2019-06-07T00:50:47.159Z,17.24
2019-06-07T00:51:50.312Z,17.22
2019-06-07T00:53:46.927Z,17.22
2019-06-07T00:54:46.865Z,17.22
2019-06-07T00:55:46.771Z,17.22
2019-06-07T00:56:46.692Z,17.26
2019-06-07T00:57:46.614Z,17.27
2019-06-07T00:58:46.538Z,17.26
2019-06-07T00:59:46.459Z,17.33
2019-06-07T01:00:46.380Z,17.24
2019-06-07T01:01:46.303Z,17.26
2019-06-07T01:02:46.228Z,17.16
2019-06-07T01:03:46.157Z,17.15
2019-06-07T01:04:46.072Z,17.15
2019-06-07T01:05:45.996Z,17.12
2019-06-07T01:06:45.912Z,17.19
2019-06-07T01:07:45.839Z,17.26
2019-06-07T01:08:45.762Z,17.20
2019-06-07T01:09:45.681Z,17.14
2019-06-07T01:10:53.482Z,17.23
2019-06-07T01:11:45.525Z,17.19
2019-06-07T01:12:45.445Z,17.14
2019-06-07T01:13:45.373Z,17.11
2019-06-07T01:14:45.289Z,17.19
2019-06-07T01:15:45.222Z,17.29
2019-06-07T01:16:57.597Z,17.19
2019-06-07T01:18:32.534Z,17.26
2019-06-07T01:18:46.874Z,17.05
2019-06-07T01:19:44.901Z,16.97
2019-06-07T01:20:44.825Z,16.96
2019-06-07T01:21:44.748Z,16.96
2019-06-07T01:22:44.675Z,16.81
2019-06-07T01:24:08.774Z,16.89
2019-06-07T01:24:44.513Z,16.93
2019-06-07T01:25:44.435Z,16.93
2019-06-07T01:26:45.583Z,17.04
2019-06-07T01:27:44.278Z,16.93
2019-06-07T01:28:44.204Z,17.05
2019-06-07T01:29:44.124Z,17.01
2019-06-07T01:30:44.043Z,17.12
2019-06-07T01:31:44.256Z,17.06
2019-06-07T01:32:43.894Z,17.14
2019-06-07T01:33:51.011Z,17.22
2019-06-07T01:34:43.735Z,17.26
2019-06-07T01:35:43.653Z,17.33
2019-06-07T01:36:43.603Z,17.30
2019-06-07T01:37:43.500Z,17.34
2019-06-07T01:38:43.425Z,17.45
2019-06-07T01:39:43.339Z,17.42
2019-06-07T01:40:43.266Z,17.45
2019-06-07T01:41:43.190Z,17.56
2019-06-07T01:42:43.104Z,17.57
2019-06-07T01:43:43.029Z,17.52
2019-06-07T01:44:42.953Z,17.39
2019-06-07T01:45:42.877Z,17.59
2019-06-07T01:46:42.797Z,17.56
2019-06-07T01:47:42.755Z,17.52
2019-06-07T01:48:49.579Z,17.56
2019-06-07T01:49:42.563Z,17.51
2019-06-07T01:50:42.479Z,17.56
2019-06-07T01:51:42.407Z,17.57
2019-06-07T01:54:49.644Z,17.52
2019-06-07T01:55:13.772Z,17.56
2019-06-07T01:56:13.702Z,17.51
2019-06-07T01:57:30.950Z,17.54
2019-06-07T01:58:13.537Z,17.59
2019-06-07T01:59:13.462Z,17.52
2019-06-07T02:00:14.463Z,17.54
2019-06-07T02:01:13.308Z,17.48
2019-06-07T02:02:13.228Z,17.41
2019-06-07T02:03:13.149Z,17.45
2019-06-07T02:04:13.070Z,17.39
2019-06-07T02:05:12.987Z,17.56
2019-06-07T02:06:12.926Z,17.59
2019-06-07T02:07:12.835Z,17.42
2019-06-07T02:08:12.760Z,17.41
2019-06-07T02:09:12.707Z,17.42
2019-06-07T02:10:12.610Z,17.30
2019-06-07T02:11:12.529Z,17.31
2019-06-07T02:12:25.548Z,17.29
2019-06-07T02:13:12.371Z,17.14
2019-06-07T02:14:12.286Z,17.06
2019-06-07T02:15:12.219Z,16.87
2019-06-07T02:16:12.139Z,16.78
2019-06-07T02:17:12.060Z,16.76
2019-06-07T02:18:11.982Z,16.83
2019-06-07T02:19:11.907Z,16.76
2019-06-07T02:20:11.828Z,16.83
2019-06-07T02:21:11.750Z,16.75
2019-06-07T02:22:11.671Z,16.78
2019-06-07T02:23:11.591Z,16.81
2019-06-07T02:24:11.516Z,16.81
2019-06-07T02:26:11.358Z,16.74
2019-06-07T02:27:11.281Z,16.69
2019-06-07T02:28:27.539Z,16.76
2019-06-07T02:29:11.126Z,16.83
2019-06-07T02:30:36.801Z,16.84
2019-06-07T02:31:10.969Z,16.79
2019-06-07T02:32:10.890Z,16.90
2019-06-07T02:33:10.818Z,16.97
2019-06-07T02:34:10.733Z,16.96
2019-06-07T02:35:10.656Z,17.04
2019-06-07T02:36:10.590Z,17.12
2019-06-07T02:37:10.498Z,17.06
2019-06-07T02:38:10.425Z,17.12
2019-06-07T02:39:10.346Z,17.05
2019-06-07T02:40:10.270Z,17.06
2019-06-07T02:41:10.191Z,16.97
2019-06-07T02:42:10.110Z,17.01
2019-06-07T02:43:10.029Z,17.01
2019-06-07T02:44:09.960Z,17.02
2019-06-07T02:45:10.730Z,16.99
2019-06-07T02:46:25.508Z,17.05
2019-06-07T02:47:09.733Z,16.96
2019-06-07T02:48:09.643Z,16.96
2019-06-07T02:49:09.569Z,16.99
2019-06-07T02:50:09.487Z,17.01
2019-06-07T02:51:09.411Z,17.01
2019-06-07T02:52:09.384Z,16.93
2019-06-07T02:53:09.259Z,16.91
2019-06-07T02:54:09.177Z,17.01
2019-06-07T02:55:09.099Z,16.87
2019-06-07T02:56:37.717Z,17.08
2019-06-07T02:57:08.947Z,16.99
2019-06-07T02:58:08.861Z,16.96
2019-06-07T02:59:08.783Z,16.86
2019-06-07T03:00:40.413Z,16.94
2019-06-07T03:01:09.691Z,16.89
2019-06-07T03:02:08.598Z,16.81
2019-06-07T03:03:08.473Z,16.79
2019-06-07T03:04:08.396Z,16.71
2019-06-07T03:05:08.317Z,16.74
2019-06-07T03:06:08.239Z,16.78
2019-06-07T03:07:08.163Z,16.64
2019-06-07T03:08:08.085Z,16.56
2019-06-07T03:09:08.006Z,16.61
2019-06-07T03:10:07.924Z,16.61
2019-06-07T03:11:07.850Z,16.64
2019-06-07T03:12:07.774Z,16.56
2019-06-07T03:13:07.694Z,16.58
2019-06-07T03:14:07.619Z,16.58
2019-06-07T03:15:07.535Z,16.65
2019-06-07T03:16:07.459Z,16.74
2019-06-07T03:17:07.384Z,16.60
2019-06-07T03:18:07.306Z,16.65
2019-06-07T03:19:07.227Z,16.65
2019-06-07T03:20:07.149Z,16.64
2019-06-07T03:21:07.067Z,16.72
2019-06-07T03:22:06.986Z,16.66
2019-06-07T03:23:06.910Z,16.69
2019-06-07T03:24:06.836Z,16.72
2019-06-07T03:25:06.759Z,16.74
2019-06-07T03:26:06.674Z,16.72
2019-06-07T03:28:06.520Z,16.79
2019-06-07T03:29:06.440Z,16.79
2019-06-07T03:30:36.191Z,16.81
2019-06-07T03:31:06.299Z,16.79
2019-06-07T03:32:06.208Z,16.72
2019-06-07T03:33:06.149Z,16.81
2019-06-07T03:34:06.050Z,16.74
2019-06-07T03:35:05.974Z,16.72
2019-06-07T03:36:22.651Z,16.71
2019-06-07T03:37:05.819Z,16.79
2019-06-07T03:38:05.742Z,16.81
2019-06-07T03:39:05.661Z,16.83
2019-06-07T03:40:05.583Z,16.81
2019-06-07T03:41:05.500Z,16.81
2019-06-07T03:42:08.230Z,16.86
2019-06-07T03:43:05.348Z,16.90
2019-06-07T03:44:05.299Z,16.89
2019-06-07T03:45:05.189Z,16.89
2019-06-07T03:46:05.109Z,16.93
2019-06-07T03:47:05.035Z,16.94
2019-06-07T03:48:04.957Z,16.89
2019-06-07T03:49:04.881Z,16.86
2019-06-07T03:50:04.800Z,16.90
2019-06-07T03:51:20.312Z,16.91
2019-06-07T03:52:04.643Z,16.93
2019-06-07T03:53:04.584Z,16.90
2019-06-07T03:54:04.492Z,16.97
2019-06-07T03:55:04.413Z,16.87
2019-06-07T03:56:04.351Z,16.93
2019-06-07T03:57:04.692Z,16.94
2019-06-07T03:59:04.099Z,16.94
2019-06-07T04:00:04.021Z,16.99
2019-06-07T04:01:03.946Z,16.97
2019-06-07T04:02:03.863Z,17.08
2019-06-07T04:03:03.786Z,16.94
2019-06-07T04:04:03.721Z,17.06
2019-06-07T04:05:03.630Z,17.01
2019-06-07T04:06:03.614Z,17.09
2019-06-07T04:07:03.475Z,17.08
2019-06-07T04:08:03.455Z,16.97
2019-06-07T04:09:03.324Z,17.11
2019-06-07T04:10:03.311Z,16.96
2019-06-07T04:11:03.165Z,16.97
2019-06-07T04:12:03.086Z,17.05
2019-06-07T04:13:03.010Z,16.99
2019-06-07T04:14:02.929Z,16.91
2019-06-07T04:15:02.851Z,16.60
2019-06-07T04:16:02.789Z,16.54
2019-06-07T04:17:02.710Z,16.58
2019-06-07T04:18:04.153Z,16.58
2019-06-07T04:19:02.541Z,16.60
2019-06-07T04:20:02.930Z,16.58
2019-06-07T04:21:02.389Z,16.60
2019-06-07T04:22:02.311Z,16.58
2019-06-07T04:23:02.232Z,16.56
2019-06-07T04:24:02.153Z,16.54
2019-06-07T04:25:02.088Z,16.58
2019-06-07T04:26:01.994Z,16.56
2019-06-07T04:27:01.920Z,16.58
2019-06-07T04:28:01.836Z,16.53
2019-06-07T04:29:32.481Z,16.54
2019-06-07T04:30:07.236Z,16.56
2019-06-07T04:31:01.607Z,16.60
2019-06-07T04:32:01.528Z,16.64
2019-06-07T04:33:01.460Z,16.58
2019-06-07T04:34:01.368Z,16.64
2019-06-07T04:35:01.292Z,16.66
2019-06-07T04:36:01.215Z,16.61
2019-06-07T04:37:01.145Z,16.69
2019-06-07T04:38:01.058Z,16.71
2019-06-07T04:39:00.982Z,16.78
2019-06-07T04:40:00.905Z,16.78
2019-06-07T04:41:00.847Z,16.76
2019-06-07T04:42:00.746Z,16.81
2019-06-07T04:43:00.671Z,16.76
2019-06-07T04:44:00.632Z,16.79
2019-06-07T04:45:00.677Z,16.86
2019-06-07T04:46:00.534Z,16.81
2019-06-07T04:47:00.380Z,16.89
2019-06-07T04:48:00.297Z,16.97
2019-06-07T04:49:00.242Z,16.97
2019-06-07T04:50:00.125Z,16.94
2019-06-07T04:51:00.044Z,16.99
2019-06-07T04:51:59.966Z,16.93
2019-06-07T04:52:59.898Z,16.96
2019-06-07T04:53:59.815Z,16.93
2019-06-07T04:54:59.732Z,16.97
2019-06-07T04:55:59.657Z,17.05
2019-06-07T04:56:59.576Z,17.09
2019-06-07T04:57:59.498Z,17.09
2019-06-07T04:58:59.427Z,17.15
2019-06-07T05:00:12.963Z,17.15
2019-06-07T05:01:03.494Z,17.20
2019-06-07T05:01:59.187Z,17.23
2019-06-07T05:02:59.109Z,17.19
2019-06-07T05:03:59.035Z,17.20
2019-06-07T05:04:58.956Z,17.29
2019-06-07T05:05:58.876Z,17.23
2019-06-07T05:06:58.808Z,17.24
2019-06-07T05:08:07.233Z,17.19
2019-06-07T05:08:58.684Z,17.22
2019-06-07T05:09:58.565Z,17.16
2019-06-07T05:10:58.490Z,17.16
2019-06-07T05:11:58.412Z,17.15
2019-06-07T05:12:58.415Z,17.12
2019-06-07T05:13:58.386Z,17.20
2019-06-07T05:14:58.228Z,17.23
2019-06-07T05:15:58.101Z,17.19
2019-06-07T05:16:58.056Z,17.23
2019-06-07T05:17:57.974Z,17.20
2019-06-07T05:18:57.889Z,17.24
2019-06-07T05:19:57.856Z,17.33
2019-06-07T05:20:57.715Z,17.27
2019-06-07T05:22:04.411Z,17.34
2019-06-07T05:22:57.559Z,17.33
2019-06-07T05:24:07.513Z,17.36
2019-06-07T05:24:57.412Z,17.27
2019-06-07T05:25:57.332Z,17.29
2019-06-07T05:26:57.273Z,17.30
2019-06-07T05:27:57.176Z,17.39
2019-06-07T05:28:57.091Z,17.33
2019-06-07T05:30:13.346Z,17.41
2019-06-07T05:31:04.511Z,17.33
2019-06-07T05:31:56.872Z,17.34
2019-06-07T05:32:56.783Z,17.44
2019-06-07T05:33:56.729Z,17.38
2019-06-07T05:34:56.633Z,17.38
2019-06-07T05:35:56.556Z,17.46
2019-06-07T05:37:11.077Z,17.51
2019-06-07T05:37:56.406Z,17.57
2019-06-07T05:38:56.317Z,17.52
2019-06-07T05:39:56.260Z,17.56
2019-06-07T05:40:56.165Z,17.56
2019-06-07T05:41:56.090Z,17.51
2019-06-07T05:42:56.011Z,17.60
2019-06-07T05:44:12.227Z,17.48
2019-06-07T05:44:55.862Z,17.59
2019-06-07T05:45:55.795Z,17.57
2019-06-07T05:46:55.702Z,17.48
2019-06-07T05:47:55.644Z,17.52
2019-06-07T05:48:55.550Z,17.49
2019-06-07T05:49:55.480Z,17.51
2019-06-07T05:50:57.339Z,17.49
2019-06-07T05:51:55.316Z,17.57
2019-06-07T05:52:55.266Z,17.38
2019-06-07T05:53:55.159Z,17.51
2019-06-07T05:54:55.082Z,17.51
2019-06-07T05:55:55.009Z,17.56
2019-06-07T05:56:54.927Z,17.51
2019-06-07T05:57:54.860Z,17.52
2019-06-07T05:58:54.777Z,17.57
2019-06-07T05:59:54.699Z,17.56
2019-06-07T06:00:54.619Z,17.51
2019-06-07T06:02:02.648Z,17.52
2019-06-07T06:03:04.962Z,17.56
2019-06-07T06:03:54.389Z,17.52
2019-06-07T06:04:54.306Z,17.54
2019-06-07T06:05:55.530Z,17.52
2019-06-07T06:06:54.154Z,17.52
2019-06-07T06:07:54.079Z,17.56
2019-06-07T06:09:11.518Z,17.51
2019-06-07T06:09:53.926Z,17.56
2019-06-07T06:10:53.857Z,17.52
2019-06-07T06:12:01.772Z,17.52
2019-06-07T06:12:53.688Z,17.59
2019-06-07T06:14:06.447Z,17.51
2019-06-07T06:14:53.538Z,17.54
2019-06-07T06:16:01.079Z,17.64
2019-06-07T06:16:53.386Z,17.64
2019-06-07T06:17:54.126Z,17.72
2019-06-07T06:18:53.225Z,17.71
2019-06-07T06:19:53.649Z,17.76
2019-06-07T06:21:15.662Z,17.82
2019-06-07T06:21:53.000Z,17.70
2019-06-07T06:22:52.924Z,17.76
2019-06-07T06:23:54.041Z,17.71
2019-06-07T06:25:30.077Z,17.85
2019-06-07T06:25:56.627Z,17.85
2019-06-07T06:27:00.272Z,17.83
2019-06-07T06:28:12.434Z,17.92
2019-06-07T06:28:52.456Z,17.92
2019-06-07T06:29:52.560Z,18.01
2019-06-07T06:30:52.319Z,18.04
2019-06-07T06:32:39.791Z,18.01
2019-06-07T06:32:57.798Z,18.03
2019-06-07T06:33:52.077Z,18.08
2019-06-07T06:34:54.027Z,18.11
2019-06-07T06:35:51.923Z,17.98
2019-06-07T06:36:51.853Z,18.08
2019-06-07T06:37:53.181Z,18.03
2019-06-07T06:38:51.739Z,18.07
2019-06-07T06:39:51.617Z,18.07
2019-06-07T06:41:11.752Z,18.07
2019-06-07T06:42:01.664Z,18.08
2019-06-07T06:42:51.385Z,18.05
2019-06-07T06:43:52.654Z,18.07
2019-06-07T06:44:53.966Z,18.10
2019-06-07T06:45:51.162Z,18.18
2019-06-07T06:46:57.456Z,18.15
2019-06-07T06:47:51.042Z,18.18
2019-06-07T06:48:54.966Z,18.18
2019-06-07T06:49:54.253Z,18.19
2019-06-07T06:50:52.584Z,18.19
2019-06-07T06:51:53.421Z,18.28
2019-06-07T06:52:54.395Z,18.22
2019-06-07T06:53:52.501Z,18.26
2019-06-07T06:54:59.367Z,18.22
2019-06-07T06:55:51.421Z,18.26
2019-06-07T06:56:52.612Z,18.28
2019-06-07T06:57:51.370Z,18.35
2019-06-07T06:59:32.688Z,18.37
2019-06-07T06:59:52.514Z,18.35
2019-06-07T07:01:04.926Z,18.33
2019-06-07T07:01:52.453Z,18.35
2019-06-07T07:03:40.738Z,18.40
2019-06-07T07:04:09.165Z,18.37
2019-06-07T07:04:53.490Z,18.31
2019-06-07T07:05:53.310Z,18.28
2019-06-07T07:06:50.632Z,18.29
2019-06-07T07:07:51.621Z,18.34
2019-06-07T07:08:51.404Z,18.41
2019-06-07T07:09:55.311Z,18.31
2019-06-07T07:10:52.649Z,18.35
2019-06-07T07:12:00.779Z,18.44
2019-06-07T07:12:51.213Z,18.40
2019-06-07T07:13:53.238Z,18.44
2019-06-07T07:14:50.284Z,18.50
2019-06-07T07:15:55.215Z,18.41
2019-06-07T07:16:53.546Z,18.50
2019-06-07T07:18:00.695Z,18.50
2019-06-07T07:18:51.706Z,18.47
2019-06-07T07:19:50.427Z,18.50
2019-06-07T07:20:53.385Z,18.52
2019-06-07T07:21:51.433Z,18.50
2019-06-07T07:22:51.490Z,18.56
2019-06-07T07:24:14.544Z,18.55
2019-06-07T07:24:51.836Z,18.55
2019-06-07T07:25:55.396Z,18.58
2019-06-07T07:26:50.434Z,18.52
2019-06-07T07:27:52.096Z,18.52
2019-06-07T07:28:54.030Z,18.56
2019-06-07T07:29:52.617Z,18.56
2019-06-07T07:30:49.982Z,18.53
2019-06-07T07:31:51.744Z,18.58
2019-06-07T07:32:48.959Z,18.62
2019-06-07T07:34:50.061Z,18.68
2019-06-07T07:36:11.070Z,18.63
2019-06-07T07:36:48.281Z,18.66
2019-06-07T07:37:53.567Z,18.71
2019-06-07T07:38:51.744Z,18.59
2019-06-07T07:39:50.478Z,18.68
2019-06-07T07:41:14.128Z,18.68
2019-06-07T07:42:12.333Z,18.66
2019-06-07T07:42:47.549Z,18.71
2019-06-07T07:43:52.894Z,18.75
2019-06-07T07:44:49.045Z,18.75
2019-06-07T07:45:51.075Z,18.74
2019-06-07T07:46:46.650Z,18.78
2019-06-07T07:48:01.994Z,18.83
2019-06-07T07:48:46.343Z,18.83
2019-06-07T07:49:48.374Z,18.73
2019-06-07T07:50:49.670Z,18.80
2019-06-07T07:51:46.426Z,18.77
2019-06-07T07:52:49.064Z,18.86
2019-06-07T07:53:56.117Z,18.83
2019-06-07T07:54:57.850Z,18.81
2019-06-07T07:56:51.693Z,18.86
2019-06-07T07:57:56.788Z,18.90
2019-06-07T07:58:54.595Z,18.95
2019-06-07T08:00:08.380Z,18.84
2019-06-07T08:00:54.887Z,18.81
2019-06-07T08:01:53.852Z,18.90
2019-06-07T08:02:52.974Z,18.84
2019-06-07T08:03:50.706Z,18.83
2019-06-07T08:05:51.310Z,18.93
2019-06-07T08:06:51.564Z,18.92
2019-06-07T08:07:53.455Z,18.93
2019-06-07T08:08:51.189Z,18.92
2019-06-07T08:09:51.428Z,18.88
2019-06-07T08:10:54.965Z,18.96
2019-06-07T08:11:51.536Z,18.95
2019-06-07T08:13:11.802Z,18.99
2019-06-07T08:13:50.522Z,18.95
2019-06-07T08:14:51.100Z,18.95
2019-06-07T08:15:54.487Z,18.99
2019-06-07T08:16:49.358Z,18.99
2019-06-07T08:17:51.442Z,19.00
2019-06-07T08:18:51.529Z,19.04
2019-06-07T08:19:49.952Z,19.02
2019-06-07T08:21:10.960Z,19.09
2019-06-07T08:21:49.002Z,19.12
2019-06-07T08:22:49.904Z,19.08
2019-06-07T08:23:51.621Z,19.04
2019-06-07T08:24:51.359Z,19.12
2019-06-07T08:25:49.159Z,19.19
2019-06-07T08:27:12.514Z,19.14
2019-06-07T08:27:49.399Z,19.15
2019-06-07T08:28:48.426Z,19.12
2019-06-07T08:30:03.620Z,19.22
2019-06-07T08:30:52.336Z,19.27
2019-06-07T08:31:48.310Z,19.26
2019-06-07T08:32:51.511Z,19.15
2019-06-07T08:33:47.803Z,19.21
2019-06-07T08:34:49.842Z,19.19
2019-06-07T08:36:48.035Z,19.22
2019-06-07T08:38:50.920Z,19.29
2019-06-07T08:39:46.936Z,19.27
2019-06-07T08:40:46.849Z,19.27
2019-06-07T08:42:00.120Z,19.27
2019-06-07T08:43:02.812Z,19.29
2019-06-07T08:43:46.620Z,19.41
2019-06-07T08:44:46.547Z,19.36
2019-06-07T08:45:46.469Z,19.41
2019-06-07T08:46:46.397Z,19.45
2019-06-07T08:47:46.317Z,19.39
2019-06-07T08:48:46.263Z,19.47
2019-06-07T08:49:46.168Z,19.44
2019-06-07T08:50:46.091Z,19.39
2019-06-07T08:51:46.015Z,19.55
2019-06-07T08:52:45.963Z,19.54
2019-06-07T08:54:02.687Z,19.55
2019-06-07T08:54:45.784Z,19.62
2019-06-07T08:55:45.709Z,19.49
2019-06-07T08:56:45.638Z,19.59
2019-06-07T08:57:45.574Z,19.64
2019-06-07T08:58:45.493Z,19.58
2019-06-07T08:59:45.432Z,19.70
2019-06-07T09:00:47.569Z,19.66
2019-06-07T09:01:45.259Z,19.63
2019-06-07T09:02:45.184Z,19.82
2019-06-07T09:03:45.107Z,19.82
2019-06-07T09:04:45.034Z,19.81
2019-06-07T09:05:44.960Z,19.74
2019-06-07T09:07:44.801Z,19.74
2019-06-07T09:08:44.727Z,19.74
2019-06-07T09:09:44.651Z,19.74
2019-06-07T09:10:44.577Z,19.84
2019-06-07T09:11:44.511Z,19.86
2019-06-07T09:12:44.432Z,19.94
2019-06-07T09:13:44.355Z,19.89
2019-06-07T09:14:59.874Z,19.92
2019-06-07T09:15:44.206Z,19.94
2019-06-07T09:16:44.127Z,19.94
2019-06-07T09:18:30.574Z,19.95
2019-06-07T09:18:45.133Z,20.09
2019-06-07T09:19:43.904Z,20.10
2019-06-07T09:20:43.827Z,20.11
2019-06-07T09:21:43.752Z,20.21
2019-06-07T09:22:43.676Z,20.21
2019-06-07T09:23:43.618Z,20.22
2019-06-07T09:24:43.528Z,20.26
2019-06-07T09:25:56.411Z,20.21
2019-06-07T09:26:43.403Z,20.21
2019-06-07T09:27:43.301Z,20.18
2019-06-07T09:28:43.252Z,20.29
2019-06-07T09:29:43.147Z,20.25
2019-06-07T09:30:43.075Z,20.22
2019-06-07T09:31:52.884Z,20.21
2019-06-07T09:32:42.924Z,20.24
2019-06-07T09:33:42.853Z,20.24
2019-06-07T09:34:42.776Z,20.25
2019-06-07T09:35:42.701Z,20.22
2019-06-07T09:36:42.627Z,20.34
2019-06-07T09:38:42.475Z,20.32
2019-06-07T09:39:42.403Z,20.25
2019-06-07T09:40:42.333Z,20.37
2019-06-07T09:41:49.232Z,20.36
2019-06-07T09:42:42.187Z,20.37
2019-06-07T09:44:42.027Z,20.48
2019-06-07T09:45:41.953Z,20.50
2019-06-07T09:46:41.875Z,20.50
2019-06-07T09:47:41.803Z,20.58
2019-06-07T09:49:10.555Z,20.56
2019-06-07T09:49:41.653Z,20.50
2019-06-07T09:50:41.670Z,20.52
2019-06-07T09:51:41.505Z,20.56
2019-06-07T09:52:57.817Z,20.58
2019-06-07T09:53:41.359Z,20.58
2019-06-07T09:55:41.204Z,20.63
2019-06-07T09:56:41.135Z,20.60
2019-06-07T09:57:41.055Z,20.72
2019-06-07T09:58:52.110Z,20.66
2019-06-07T09:59:40.907Z,20.69
2019-06-07T10:00:42.673Z,20.75
2019-06-07T10:01:40.761Z,20.72
2019-06-07T10:02:40.705Z,20.74
2019-06-07T10:03:40.620Z,20.70
2019-06-07T10:04:40.538Z,20.72
2019-06-07T10:05:40.465Z,20.77
2019-06-07T10:06:40.387Z,20.82
2019-06-07T10:07:59.315Z,20.85
2019-06-07T10:09:57.192Z,20.84
2019-06-07T10:10:09.827Z,21.00
2019-06-07T10:10:42.812Z,20.96
2019-06-07T10:11:40.015Z,20.93
2019-06-07T10:12:39.955Z,21.05
2019-06-07T10:13:39.866Z,21.06
2019-06-07T10:14:39.794Z,21.12
2019-06-07T10:15:39.719Z,21.12
2019-06-07T10:16:48.020Z,21.14
2019-06-07T10:17:39.578Z,21.15
2019-06-07T10:18:39.497Z,21.22
2019-06-07T10:19:39.424Z,21.29
2019-06-07T10:20:39.352Z,21.24
2019-06-07T10:21:39.278Z,21.29
2019-06-07T10:22:39.200Z,21.37
2019-06-07T10:23:39.126Z,21.42
2019-06-07T10:24:39.053Z,21.52
2019-06-07T10:25:38.978Z,21.50
2019-06-07T10:26:38.928Z,21.62
2019-06-07T10:27:38.830Z,21.57
2019-06-07T10:28:38.758Z,21.62
2019-06-07T10:29:38.685Z,21.72
2019-06-07T10:30:38.607Z,21.69
2019-06-07T10:31:38.586Z,21.73
2019-06-07T10:32:38.462Z,21.72
2019-06-07T10:33:38.389Z,21.72
2019-06-07T10:34:38.313Z,21.77
2019-06-07T10:35:38.242Z,21.69
2019-06-07T10:36:38.181Z,21.72
2019-06-07T10:37:38.093Z,21.77
2019-06-07T10:38:38.023Z,21.77
2019-06-07T10:39:48.168Z,21.77
2019-06-07T10:40:37.872Z,21.88
2019-06-07T10:41:37.801Z,21.83
2019-06-07T10:42:37.724Z,21.88
2019-06-07T10:43:37.676Z,21.92
2019-06-07T10:44:37.584Z,21.82
2019-06-07T10:45:37.503Z,21.80
2019-06-07T10:46:37.431Z,21.91
2019-06-07T10:47:37.361Z,21.98
2019-06-07T10:48:37.285Z,22.00
2019-06-07T10:49:37.216Z,22.00
2019-06-07T10:50:37.147Z,22.06
2019-06-07T10:51:37.066Z,22.08
2019-06-07T10:52:36.995Z,22.18
2019-06-07T10:53:36.919Z,22.15
2019-06-07T10:54:36.843Z,22.13
2019-06-07T10:55:36.781Z,22.23
2019-06-07T10:56:36.715Z,22.33
2019-06-07T10:57:36.626Z,22.28
2019-06-07T10:58:36.552Z,22.32
2019-06-07T10:59:36.480Z,22.30
2019-06-07T11:00:36.403Z,22.41
2019-06-07T11:01:36.333Z,22.47
2019-06-07T11:02:36.261Z,22.36
2019-06-07T11:03:36.188Z,22.51
2019-06-07T11:04:36.114Z,22.41
2019-06-07T11:05:36.042Z,22.45
2019-06-07T11:06:35.973Z,22.54
2019-06-07T11:07:35.897Z,22.60
2019-06-07T11:08:35.825Z,22.62
2019-06-07T11:09:35.747Z,22.65
2019-06-07T11:10:35.673Z,22.60
2019-06-07T11:11:35.606Z,22.73
2019-06-07T11:12:35.542Z,22.68
2019-06-07T11:13:35.462Z,22.72
2019-06-07T11:14:35.388Z,22.76
2019-06-07T11:15:35.317Z,22.93
2019-06-07T11:16:35.280Z,22.84
2019-06-07T11:17:35.173Z,22.93
2019-06-07T11:18:35.095Z,22.96
2019-06-07T11:19:35.027Z,22.94
2019-06-07T11:20:34.951Z,22.98
2019-06-07T11:21:34.889Z,22.94
2019-06-07T11:22:34.812Z,22.94
2019-06-07T11:23:34.737Z,22.99
2019-06-07T11:24:34.670Z,22.99
2019-06-07T11:25:34.596Z,22.99
2019-06-07T11:26:34.522Z,23.06
2019-06-07T11:27:34.447Z,23.08
2019-06-07T11:28:34.375Z,23.12
2019-06-07T11:29:34.303Z,23.18
2019-06-07T11:30:34.236Z,23.24
2019-06-07T11:31:34.160Z,23.32
2019-06-07T11:32:34.092Z,23.32
2019-06-07T11:33:34.016Z,23.43
2019-06-07T11:34:33.945Z,23.31
2019-06-07T11:35:33.871Z,23.37
2019-06-07T11:36:33.800Z,23.40
2019-06-07T11:37:33.729Z,23.40
2019-06-07T11:38:33.654Z,23.36
2019-06-07T11:39:33.582Z,23.51
2019-06-07T11:40:35.913Z,23.54
2019-06-07T11:41:33.442Z,23.47
2019-06-07T11:42:33.369Z,23.56
2019-06-07T11:43:33.331Z,23.51
2019-06-07T11:44:33.227Z,23.56
2019-06-07T11:45:33.157Z,23.63
2019-06-07T11:46:33.089Z,23.69
2019-06-07T11:47:33.050Z,23.71
2019-06-07T11:48:32.941Z,23.68
2019-06-07T11:49:32.874Z,23.81
2019-06-07T11:50:32.799Z,23.84
2019-06-07T11:51:32.730Z,23.77
2019-06-07T11:52:32.660Z,23.87
2019-06-07T11:53:32.584Z,23.91
2019-06-07T11:54:32.518Z,23.88
2019-06-07T11:55:32.444Z,23.80
2019-06-07T11:56:32.375Z,23.83
2019-06-07T11:57:32.326Z,23.81
2019-06-07T11:58:32.242Z,23.84
2019-06-07T11:59:32.158Z,23.84
2019-06-07T12:00:34.307Z,23.84
2019-06-07T12:01:32.015Z,23.99
2019-06-07T12:02:31.983Z,23.98
2019-06-07T12:03:31.887Z,24.01
2019-06-07T12:04:34.956Z,24.05
2019-06-07T12:05:31.730Z,24.21
2019-06-07T12:06:31.663Z,24.18
2019-06-07T12:07:31.593Z,24.28
2019-06-07T12:08:31.535Z,24.35
2019-06-07T12:09:31.452Z,24.40
2019-06-07T12:10:42.202Z,24.39
2019-06-07T12:11:31.314Z,24.40
2019-06-07T12:12:31.242Z,24.60
2019-06-07T12:13:31.173Z,24.53
2019-06-07T12:14:31.104Z,24.61
2019-06-07T12:15:31.043Z,24.66
2019-06-07T12:16:30.974Z,24.69
2019-06-07T12:17:30.899Z,24.81
2019-06-07T12:18:30.867Z,25.03
2019-06-07T12:19:30.794Z,25.11
2019-06-07T12:20:30.728Z,25.36
2019-06-07T12:21:30.639Z,25.48
2019-06-07T12:22:30.576Z,25.87
2019-06-07T12:23:30.511Z,26.15
2019-06-07T12:24:30.450Z,26.37
2019-06-07T12:25:30.400Z,26.60
2019-06-07T12:26:30.322Z,26.75
2019-06-07T12:27:30.261Z,27.00
2019-06-07T12:28:30.202Z,27.25
2019-06-07T12:29:30.145Z,27.40
2019-06-07T12:30:30.087Z,27.70
2019-06-07T12:31:30.021Z,27.74
2019-06-07T12:32:29.963Z,27.75
2019-06-07T12:33:29.902Z,27.89
2019-06-07T12:34:29.844Z,28.04
2019-06-07T12:35:29.785Z,28.19
2019-06-07T12:36:29.744Z,28.39
2019-06-07T12:37:43.108Z,28.56
2019-06-07T12:38:29.612Z,28.79
2019-06-07T12:39:29.556Z,28.84
2019-06-07T12:40:32.240Z,29.05
2019-06-07T12:41:29.444Z,29.23
2019-06-07T12:42:29.392Z,29.50
2019-06-07T12:43:29.333Z,29.65
2019-06-07T12:44:29.280Z,29.76
2019-06-07T12:45:45.455Z,30.02
2019-06-07T12:46:29.167Z,30.10
2019-06-07T12:47:29.189Z,30.30
2019-06-07T12:48:29.052Z,30.53
2019-06-07T12:49:29.000Z,30.51
2019-06-07T12:50:42.599Z,30.69
2019-06-07T12:51:28.884Z,30.88
2019-06-07T12:52:28.849Z,30.92
2019-06-07T12:53:28.776Z,31.02
2019-06-07T12:54:28.727Z,31.00
2019-06-07T12:55:28.668Z,30.99
2019-06-07T12:56:28.607Z,31.14
2019-06-07T12:57:28.563Z,31.21
2019-06-07T12:58:34.903Z,31.42
2019-06-07T12:59:28.449Z,31.55
2019-06-07T13:00:28.394Z,31.65
2019-06-07T13:01:28.340Z,31.80
2019-06-07T13:02:28.369Z,31.93
2019-06-07T13:03:28.232Z,32.21
2019-06-07T13:04:28.179Z,32.27
2019-06-07T13:05:28.127Z,32.38
2019-06-07T13:06:28.093Z,32.40
2019-06-07T13:07:28.019Z,32.37